createdAt,value
2022-10-04T00:02:37.513Z,98889.33
2022-10-04T00:06:00.351Z,98898.47
2022-10-04T00:09:21.317Z,98905.61
2022-10-04T00:12:40.850Z,98886.70
2022-10-04T00:15:59.516Z,98891.38
2022-10-04T00:19:45.879Z,98897.67
2022-10-04T00:23:35.973Z,98898.86
2022-10-04T00:27:26.672Z,98895.84
2022-10-04T00:30:48.113Z,98903.27
2022-10-04T00:34:39.950Z,98899.80
2022-10-04T00:38:09.998Z,98894.84
2022-10-04T00:44:49.046Z,98888.91
2022-10-04T00:48:49.645Z,98880.95
2022-10-04T00:52:11.199Z,98869.33
2022-10-04T00:58:48.794Z,98874.28
2022-10-04T01:02:10.663Z,98879.12
2022-10-04T01:05:31.802Z,98879.59
2022-10-04T01:08:52.989Z,98887.55
2022-10-04T01:15:31.773Z,98887.73
2022-10-04T01:18:48.598Z,98873.81
2022-10-04T01:22:19.921Z,98867.70
2022-10-04T01:32:10.093Z,98881.30
2022-10-04T01:35:26.397Z,98875.18
2022-10-04T01:38:42.674Z,98884.13
2022-10-04T01:42:02.652Z,98880.48
2022-10-04T01:45:25.401Z,98875.99
2022-10-04T01:48:46.198Z,98868.75
2022-10-04T01:52:08.327Z,98876.70
2022-10-04T01:55:29.124Z,98875.70
2022-10-04T01:58:51.328Z,98876.88
2022-10-04T02:02:11.942Z,98868.45
2022-10-04T02:05:34.570Z,98872.95
2022-10-04T02:08:58.107Z,98864.16
2022-10-04T02:12:15.398Z,98875.59
2022-10-04T02:15:33.162Z,98868.28
2022-10-04T02:18:50.722Z,98872.77
2022-10-04T02:22:09.318Z,98856.20
2022-10-04T02:25:28.117Z,98871.30
2022-10-04T02:28:45.240Z,98865.00
2022-10-04T02:32:16.278Z,98864.16
2022-10-04T02:35:36.607Z,98862.50
2022-10-04T02:38:57.244Z,98869.83
2022-10-04T02:42:18.206Z,98873.47
2022-10-04T02:45:41.980Z,98874.65
2022-10-04T02:49:02.486Z,98868.50
2022-10-04T02:52:23.901Z,98872.34
2022-10-04T02:55:42.356Z,98870.39
2022-10-04T02:58:59.626Z,98874.88
2022-10-04T03:02:33.440Z,98875.05
2022-10-04T03:05:51.686Z,98877.09
2022-10-04T03:09:11.329Z,98875.61
2022-10-04T03:12:27.481Z,98870.86
2022-10-04T03:15:43.481Z,98871.85
2022-10-04T03:19:02.035Z,98862.58
2022-10-04T03:22:19.835Z,98867.55
2022-10-04T03:25:43.997Z,98864.42
2022-10-04T03:29:00.792Z,98857.66
2022-10-04T03:32:31.925Z,98863.61
2022-10-04T03:35:50.845Z,98865.23
2022-10-04T03:39:08.013Z,98858.64
2022-10-04T03:42:27.936Z,98866.41
2022-10-04T03:45:44.252Z,98871.23
2022-10-04T03:49:03.608Z,98877.37
2022-10-04T03:52:27.790Z,98886.97
2022-10-04T03:55:47.893Z,98883.33
2022-10-04T03:59:05.833Z,98890.73
2022-10-04T04:02:27.897Z,98884.80
2022-10-04T04:05:48.227Z,98878.48
2022-10-04T04:09:07.206Z,98888.08
2022-10-04T04:12:31.347Z,98885.43
2022-10-04T04:15:49.220Z,98898.49
2022-10-04T04:19:11.524Z,98900.81
2022-10-04T04:22:30.465Z,98907.77
2022-10-04T04:25:49.910Z,98904.27
2022-10-04T04:29:07.869Z,98908.58
2022-10-04T04:32:29.208Z,98906.59
2022-10-04T04:35:45.603Z,98908.39
2022-10-04T04:39:26.171Z,98915.71
2022-10-04T04:46:25.472Z,98912.39
2022-10-04T04:49:19.548Z,98912.39
2022-10-04T04:52:39.029Z,98911.22
2022-10-04T04:56:10.542Z,98925.13
2022-10-04T04:59:19.848Z,98917.70
2022-10-04T05:02:42.384Z,98917.70
2022-10-04T05:05:59.206Z,98921.19
2022-10-04T05:09:34.134Z,98927.30
2022-10-04T05:16:08.679Z,98930.06
2022-10-04T05:19:31.226Z,98933.20
2022-10-04T05:22:52.202Z,98935.70
2022-10-04T05:26:09.364Z,98942.63
2022-10-04T05:29:32.111Z,98951.41
2022-10-04T05:32:56.465Z,98965.14
2022-10-04T05:36:37.707Z,98958.82
2022-10-04T05:40:00.011Z,98957.83
2022-10-04T05:43:33.407Z,98968.91
2022-10-04T05:46:49.552Z,98967.91
2022-10-04T05:50:07.514Z,98961.63
2022-10-04T05:53:38.195Z,98974.50
2022-10-04T05:57:13.722Z,98979.95
2022-10-04T06:00:33.201Z,98991.04
2022-10-04T06:04:24.545Z,98994.69
2022-10-04T06:07:46.377Z,99004.30
2022-10-04T06:11:20.799Z,99014.53
2022-10-04T06:14:59.351Z,99014.53
2022-10-04T06:18:53.429Z,99012.84
2022-10-04T06:22:27.534Z,99011.67
2022-10-04T06:25:48.779Z,99024.56
2022-10-04T06:30:18.591Z,99031.33
2022-10-04T06:33:52.800Z,99034.65
2022-10-04T06:37:36.759Z,99033.29
2022-10-04T06:46:23.445Z,99038.19
2022-10-04T06:49:48.652Z,99039.03
2022-10-04T06:53:18.843Z,99033.73
2022-10-04T07:00:03.324Z,99055.35
2022-10-04T07:03:21.363Z,99060.14
2022-10-04T07:06:42.191Z,99063.89
2022-10-04T07:10:02.689Z,99079.95
2022-10-04T07:13:45.736Z,99078.64
2022-10-04T07:17:07.265Z,99087.69
2022-10-04T07:20:31.037Z,99082.23
2022-10-04T07:23:55.167Z,99093.47
2022-10-04T07:27:15.641Z,99091.48
2022-10-04T07:30:36.707Z,99102.75
2022-10-04T07:34:01.415Z,99105.47
2022-10-04T07:37:22.791Z,99113.97
2022-10-04T07:40:42.831Z,99111.84
2022-10-04T07:44:04.683Z,99117.80
2022-10-04T07:47:27.084Z,99121.75
2022-10-04T07:50:48.746Z,99119.28
2022-10-04T07:54:11.187Z,99118.28
2022-10-04T07:57:32.892Z,99129.72
2022-10-04T08:00:56.413Z,99130.38
2022-10-04T08:04:35.512Z,99140.66
2022-10-04T08:08:04.899Z,99141.94
2022-10-04T08:14:59.939Z,99152.38
2022-10-04T08:18:26.316Z,99151.38
2022-10-04T08:21:47.844Z,99151.85
2022-10-04T08:25:11.135Z,99157.45
2022-10-04T08:28:49.591Z,99156.64
2022-10-04T08:32:14.015Z,99165.70
2022-10-04T08:35:44.918Z,99162.05
2022-10-04T08:39:05.547Z,99168.08
2022-10-04T08:43:13.870Z,99183.64
2022-10-04T08:47:34.160Z,99177.70
2022-10-04T08:51:16.162Z,99174.67
2022-10-04T08:55:21.575Z,99184.11
2022-10-04T09:02:28.155Z,99182.02
2022-10-04T09:06:23.079Z,99185.38
2022-10-04T09:10:16.231Z,99192.64
2022-10-04T09:16:53.919Z,99189.90
2022-10-04T09:20:38.426Z,99203.03
2022-10-04T09:24:23.572Z,99213.76
2022-10-04T09:31:40.487Z,99217.17
2022-10-04T09:35:40.033Z,99223.42
2022-10-04T09:39:36.014Z,99232.88
2022-10-04T09:46:55.687Z,99231.34
2022-10-04T09:50:52.647Z,99232.53
2022-10-04T09:54:35.677Z,99238.13
2022-10-04T10:01:16.729Z,99242.66
2022-10-04T10:04:49.556Z,99233.30
2022-10-04T10:08:17.709Z,99240.21
2022-10-04T10:16:59.381Z,99249.29
2022-10-04T10:21:01.292Z,99251.68
2022-10-04T10:25:14.839Z,99250.48
2022-10-04T10:32:17.067Z,99258.39
2022-10-04T10:35:59.878Z,99256.27
2022-10-04T10:39:54.142Z,99253.05
2022-10-04T10:43:50.509Z,99253.97
2022-10-04T10:47:34.252Z,99259.76
2022-10-04T10:51:21.275Z,99259.83
2022-10-04T10:55:08.722Z,99254.21
2022-10-04T10:59:08.798Z,99262.10
2022-10-04T11:03:13.067Z,99268.14
2022-10-04T11:06:56.384Z,99270.51
2022-10-04T11:11:06.348Z,99280.61
2022-10-04T11:14:47.924Z,99278.59
2022-10-04T11:18:48.627Z,99278.20
2022-10-04T11:22:50.106Z,99276.19
2022-10-04T11:26:42.121Z,99282.42
2022-10-04T11:30:24.212Z,99289.91
2022-10-04T11:34:16.555Z,99282.41
2022-10-04T11:37:44.936Z,99285.45
2022-10-04T11:41:18.214Z,99294.78
2022-10-04T11:48:38.217Z,99295.76
2022-10-04T11:52:38.010Z,99296.77
2022-10-04T11:56:11.376Z,99300.84
2022-10-04T12:03:11.847Z,99293.17
2022-10-04T12:06:50.137Z,99298.06
2022-10-04T12:10:13.877Z,99294.83
2022-10-04T12:17:34.624Z,99298.58
2022-10-04T12:21:24.639Z,99304.69
2022-10-04T12:25:32.677Z,99308.37
2022-10-04T12:29:28.421Z,99305.83
2022-10-04T12:32:52.210Z,99314.42
2022-10-04T12:36:20.016Z,99315.35
2022-10-04T12:39:53.455Z,99320.63
2022-10-04T12:43:15.543Z,99319.38
2022-10-04T12:46:45.628Z,99314.04
2022-10-04T12:50:09.537Z,99323.50
2022-10-04T12:53:37.227Z,99319.23
2022-10-04T12:57:00.787Z,99318.41
2022-10-04T13:00:26.521Z,99327.67
2022-10-04T13:03:51.160Z,99318.66
2022-10-04T13:07:23.135Z,99333.20
2022-10-04T13:10:50.970Z,99332.81
2022-10-04T13:14:41.856Z,99329.98
2022-10-04T13:18:07.725Z,99332.05
2022-10-04T13:21:29.816Z,99330.02
2022-10-04T13:25:00.669Z,99337.02
2022-10-04T13:28:25.627Z,99341.70
2022-10-04T13:31:48.839Z,99340.89
2022-10-04T13:35:12.336Z,99343.11
2022-10-04T13:38:47.891Z,99343.88
2022-10-04T13:42:22.102Z,99341.96
2022-10-04T13:45:49.061Z,99343.98
2022-10-04T13:49:22.526Z,99345.84
2022-10-04T13:53:06.333Z,99338.59
2022-10-04T13:56:43.217Z,99351.92
2022-10-04T14:00:06.856Z,99352.67
2022-10-04T14:03:52.315Z,99357.75
2022-10-04T14:07:36.330Z,99357.95
2022-10-04T14:11:24.606Z,99366.95
2022-10-04T14:15:12.792Z,99358.95
2022-10-04T14:19:10.431Z,99367.95
2022-10-04T14:23:09.407Z,99360.32
2022-10-04T14:27:09.548Z,99350.34
2022-10-04T14:30:33.425Z,99355.86
2022-10-04T14:34:26.537Z,99359.27
2022-10-04T14:38:26.509Z,99350.55
2022-10-04T14:42:10.167Z,99364.41
2022-10-04T14:49:00.298Z,99363.20
2022-10-04T14:52:34.414Z,99364.67
2022-10-04T14:56:22.483Z,99361.74
2022-10-04T15:00:14.712Z,99363.75
2022-10-04T15:03:50.121Z,99363.94
2022-10-04T15:07:10.670Z,99375.97
2022-10-04T15:10:35.730Z,99374.31
2022-10-04T15:14:00.267Z,99379.45
2022-10-04T15:17:36.869Z,99381.64
2022-10-04T15:21:02.467Z,99384.69
2022-10-04T15:24:36.827Z,99384.22
2022-10-04T15:28:00.980Z,99384.29
2022-10-04T15:31:24.943Z,99383.38
2022-10-04T15:34:47.846Z,99395.56
2022-10-04T15:38:10.525Z,99397.65
2022-10-04T15:41:32.591Z,99394.05
2022-10-04T15:45:15.366Z,99399.27
2022-10-04T15:48:48.914Z,99402.79
2022-10-04T15:52:47.792Z,99402.39
2022-10-04T15:56:41.465Z,99413.91
2022-10-04T16:03:27.411Z,99425.66
2022-10-04T16:06:52.475Z,99429.70
2022-10-04T16:10:23.816Z,99424.41
2022-10-04T16:17:34.674Z,99421.02
2022-10-04T16:21:16.945Z,99426.03
2022-10-04T16:24:54.763Z,99426.75
2022-10-04T16:28:20.085Z,99424.59
2022-10-04T16:31:57.123Z,99427.28
2022-10-04T16:35:25.167Z,99420.98
2022-10-04T16:38:53.727Z,99426.46
2022-10-04T16:42:15.491Z,99436.08
2022-10-04T16:45:57.331Z,99437.59
2022-10-04T16:49:29.864Z,99438.39
2022-10-04T16:53:03.651Z,99441.36
2022-10-04T16:56:26.559Z,99451.10
2022-10-04T17:00:04.369Z,99448.45
2022-10-04T17:03:31.057Z,99459.91
2022-10-04T17:06:54.186Z,99450.43
2022-10-04T17:10:25.331Z,99460.19
2022-10-04T17:19:34.787Z,99467.12
2022-10-04T17:22:59.404Z,99469.89
2022-10-04T17:26:23.335Z,99473.83
2022-10-04T17:29:57.728Z,99470.53
2022-10-04T17:33:51.289Z,99468.69
2022-10-04T17:37:13.166Z,99483.69
2022-10-04T17:40:54.832Z,99484.37
2022-10-04T17:44:38.587Z,99489.31
2022-10-04T17:48:16.900Z,99491.77
2022-10-04T17:52:07.128Z,99494.55
2022-10-04T17:55:29.581Z,99497.47
2022-10-04T18:04:14.676Z,99503.49
2022-10-04T18:07:37.007Z,99505.06
2022-10-04T18:10:58.701Z,99506.92
2022-10-04T18:17:45.064Z,99524.28
2022-10-04T18:21:35.599Z,99527.55
2022-10-04T18:24:54.334Z,99532.16
2022-10-04T18:28:24.591Z,99532.84
2022-10-04T18:31:46.772Z,99541.30
2022-10-04T18:35:08.451Z,99536.53
2022-10-04T18:38:34.617Z,99529.77
2022-10-04T18:42:04.639Z,99532.16
2022-10-04T18:45:33.584Z,99539.00
2022-10-04T18:48:59.861Z,99540.67
2022-10-04T18:52:28.193Z,99542.72
2022-10-04T18:55:54.471Z,99543.75
2022-10-04T18:59:34.439Z,99538.15
2022-10-04T19:03:02.448Z,99551.06
2022-10-04T19:06:27.645Z,99557.05
2022-10-04T19:09:56.390Z,99557.23
2022-10-04T19:13:29.096Z,99559.41
2022-10-04T19:16:55.823Z,99569.20
2022-10-04T19:20:19.229Z,99565.39
2022-10-04T19:23:41.575Z,99560.91
2022-10-04T19:27:05.668Z,99565.39
2022-10-04T19:33:46.977Z,99573.34
2022-10-04T19:37:12.787Z,99572.84
2022-10-04T19:40:35.063Z,99579.00
2022-10-04T19:48:10.937Z,99573.18
2022-10-04T19:48:27.573Z,99578.64
2022-10-04T19:51:51.266Z,99585.23
2022-10-04T19:55:14.832Z,99579.94
2022-10-04T19:58:46.308Z,99582.91
2022-10-04T20:02:03.623Z,99590.02
2022-10-04T20:05:29.500Z,99588.68
2022-10-04T20:09:06.764Z,99605.73
2022-10-04T20:12:42.379Z,99597.73
2022-10-04T20:16:02.589Z,99611.30
2022-10-04T20:19:35.734Z,99603.00
2022-10-04T20:23:05.597Z,99609.22
2022-10-04T20:27:02.843Z,99611.30
2022-10-04T20:30:25.164Z,99616.33
2022-10-04T20:34:00.075Z,99622.53
2022-10-04T20:37:19.984Z,99621.79
2022-10-04T20:40:53.462Z,99622.40
2022-10-04T20:44:10.702Z,99632.69
2022-10-04T20:47:48.386Z,99637.50
2022-10-04T20:51:16.312Z,99638.70
2022-10-04T20:54:33.291Z,99635.52
2022-10-04T20:57:50.829Z,99635.19
2022-10-04T21:01:13.553Z,99634.95
2022-10-04T21:04:36.978Z,99639.28
2022-10-04T21:07:54.125Z,99644.62
2022-10-04T21:11:29.803Z,99644.92
2022-10-04T21:14:47.395Z,99641.19
2022-10-04T21:18:13.567Z,99645.93
2022-10-04T21:21:58.671Z,99646.91
2022-10-04T21:25:46.090Z,99644.96
2022-10-04T21:29:04.962Z,99651.38
2022-10-04T21:32:21.023Z,99655.41
2022-10-04T21:35:36.999Z,99661.27
2022-10-04T21:38:55.071Z,99657.11
2022-10-04T21:42:11.301Z,99663.66
2022-10-04T21:48:43.063Z,99673.55
2022-10-04T21:51:59.092Z,99665.38
2022-10-04T21:55:16.264Z,99664.00
2022-10-04T21:58:32.545Z,99677.47
2022-10-04T22:01:48.745Z,99679.30
2022-10-04T22:05:04.815Z,99677.33
2022-10-04T22:08:21.030Z,99666.36
2022-10-04T22:11:37.166Z,99664.98
2022-10-04T22:14:53.291Z,99676.52
2022-10-04T22:18:09.742Z,99674.84
2022-10-04T22:21:25.748Z,99685.00
2022-10-04T22:24:43.844Z,99677.52
2022-10-04T22:28:00.456Z,99675.84
2022-10-04T22:31:23.917Z,99678.08
2022-10-04T22:34:41.573Z,99669.59
2022-10-04T22:37:58.555Z,99674.17
2022-10-04T22:41:19.858Z,99670.83
2022-10-04T22:47:51.389Z,99664.88
2022-10-04T22:51:08.032Z,99668.74
2022-10-04T22:54:27.461Z,99659.30
2022-10-04T22:57:41.207Z,99661.52
2022-10-04T23:04:18.316Z,99655.69
2022-10-04T23:07:38.211Z,99635.13
2022-10-04T23:10:52.441Z,99633.45
2022-10-04T23:14:08.479Z,99621.27
2022-10-04T23:17:33.574Z,99624.88
2022-10-04T23:20:49.859Z,99636.64
2022-10-04T23:24:11.762Z,99641.92
2022-10-04T23:27:27.830Z,99644.70
2022-10-04T23:30:43.587Z,99649.56
2022-10-04T23:34:01.634Z,99651.64
2022-10-04T23:37:25.726Z,99657.05
2022-10-04T23:40:41.828Z,99669.96
2022-10-04T23:43:58.926Z,99663.98
2022-10-04T23:47:20.787Z,99666.45
2022-10-04T23:50:41.625Z,99673.79
2022-10-04T23:53:58.823Z,99670.19
2022-10-04T23:57:17.765Z,99676.42
